Time;durP1;ratioP1;P1;durP2;ratioP2;P2;SDS_P1;SDS_P2;PMS_P1;PMS_P2;Temp;Humidity;BMP_temperature;BMP_pressure;BME280_temperature;BME280_humidity;BME280_pressure;Samples;Min_cycle;Max_cycle;Signal;HPM_P1;HPM_P2
2021/07/28 00:00:33;;;;;;;10.87;9.87;;;20.50;52.00;;;;;;5030091;28;20409;-49
2021/07/28 00:02:59;;;;;;;9.82;9.02;;;20.50;50.00;;;;;;5024416;28;20437;-48
2021/07/28 00:05:24;;;;;;;9.57;8.77;;;20.50;51.50;;;;;;5022301;28;20224;-46
2021/07/28 00:07:50;;;;;;;10.87;9.77;;;20.50;47.30;;;;;;5029594;28;20173;-48
2021/07/28 00:10:15;;;;;;;10.10;9.10;;;20.50;49.40;;;;;;5028820;28;20193;-50
2021/07/28 00:12:41;;;;;;;10.27;9.47;;;20.50;53.50;;;;;;5028836;28;20221;-50
2021/07/28 00:15:07;;;;;;;9.80;9.00;;;20.50;56.70;;;;;;5029438;28;20194;-47
2021/07/28 00:17:35;;;;;;;10.00;9.10;;;20.50;55.50;;;;;;5036843;28;20229;-49
2021/07/28 00:20:05;;;;;;;10.50;9.50;;;20.50;56.70;;;;;;5028652;28;20433;-51
2021/07/28 00:25:23;;;;;;;10.53;9.33;;;20.50;52.50;;;;;;5027831;28;20525;-51
2021/07/28 00:27:52;;;;;;;11.10;9.75;;;20.40;54.40;;;;;;5027786;28;21081;-47
2021/07/28 00:30:18;;;;;;;10.50;9.27;;;20.40;54.90;;;;;;5028332;28;20197;-49
2021/07/28 00:32:44;;;;;;;9.67;8.80;;;20.40;57.70;;;;;;5023352;28;20442;-52
2021/07/28 00:35:10;;;;;;;9.80;9.00;;;20.30;60.90;;;;;;5027344;28;20534;-50
2021/07/28 00:37:35;;;;;;;9.53;8.77;;;20.30;62.80;;;;;;5026938;28;20498;-50
2021/07/28 00:40:03;;;;;;;10.53;9.53;;;20.40;60.80;;;;;;5028572;28;20174;-52
2021/07/28 00:42:29;;;;;;;9.10;8.30;;;20.40;63.00;;;;;;5028615;28;20178;-49
2021/07/28 00:44:55;;;;;;;10.03;9.00;;;20.40;63.80;;;;;;5028031;28;21129;-51
2021/07/28 00:47:20;;;;;;;11.00;9.90;;;20.30;68.30;;;;;;5027722;28;20208;-46
2021/07/28 00:49:46;;;;;;;10.27;9.40;;;20.40;71.60;;;;;;5027423;28;20186;-48
2021/07/28 00:52:12;;;;;;;10.30;9.37;;;20.40;69.80;;;;;;5021460;28;20189;-49
2021/07/28 00:54:39;;;;;;;10.90;9.90;;;20.30;71.50;;;;;;5027227;28;20182;-49
2021/07/28 00:57:07;;;;;;;10.60;9.70;;;20.30;77.60;;;;;;5027677;28;20186;-49
2021/07/28 00:59:33;;;;;;;10.73;9.70;;;20.30;85.60;;;;;;5028305;28;20445;-47
2021/07/28 01:01:58;;;;;;;10.60;9.60;;;20.30;88.70;;;;;;5026461;28;20442;-49
2021/07/28 01:04:24;;;;;;;10.73;9.70;;;20.30;87.40;;;;;;5026936;28;20192;-48
2021/07/28 01:06:50;;;;;;;10.77;9.87;;;20.30;90.10;;;;;;5021726;28;20194;-48
2021/07/28 01:09:15;;;;;;;11.10;10.10;;;20.20;91.40;;;;;;5028391;28;20186;-48
2021/07/28 01:11:41;;;;;;;13.30;11.03;;;20.10;97.70;;;;;;5021486;28;20187;-48
2021/07/28 01:14:06;;;;;;;11.00;10.00;;;20.00;99.90;;;;;;5027966;28;20190;-48
2021/07/28 01:16:38;;;;;;;11.20;10.17;;;20.00;99.90;;;;;;5027071;28;20213;-49
2021/07/28 01:19:10;;;;;;;10.87;10.00;;;20.00;99.90;;;;;;5028134;28;20206;-50
2021/07/28 01:21:36;;;;;;;12.03;10.93;;;19.90;99.90;;;;;;5022188;28;20436;-49
2021/07/28 01:24:03;;;;;;;10.93;9.83;;;20.00;99.90;;;;;;5028504;28;20463;-50
2021/07/28 01:26:29;;;;;;;12.20;10.97;;;20.00;99.90;;;;;;5030809;28;20468;-49
2021/07/28 01:28:56;;;;;;;10.93;9.93;;;19.90;99.90;;;;;;5024712;28;20442;-52
2021/07/28 01:31:22;;;;;;;11.67;10.50;;;19.90;99.90;;;;;;5031528;28;20714;-48
2021/07/28 01:33:49;;;;;;;11.60;10.60;;;19.90;99.90;;;;;;5030883;28;20436;-52
2021/07/28 01:36:19;;;;;;;11.23;10.23;;;19.90;99.90;;;;;;5027586;28;20437;-51
2021/07/28 01:38:46;;;;;;;11.90;10.70;;;19.90;99.90;;;;;;5019715;28;20432;-49
2021/07/28 01:41:12;;;;;;;13.13;11.83;;;19.80;99.90;;;;;;5028719;28;20520;-51
2021/07/28 01:43:39;;;;;;;12.40;10.57;;;19.80;99.90;;;;;;5010671;28;21281;-51
2021/07/28 01:46:06;;;;;;;10.90;10.00;;;19.80;99.90;;;;;;5030837;28;20479;-49
2021/07/28 01:48:32;;;;;;;11.32;10.43;;;19.90;99.90;;;;;;5031743;28;20334;-49
2021/07/28 01:50:58;;;;;;;11.83;10.77;;;19.90;99.90;;;;;;5030457;28;20263;-46
2021/07/28 01:53:25;;;;;;;12.60;11.40;;;19.90;99.90;;;;;;5024965;28;20432;-51
2021/07/28 01:55:52;;;;;;;11.90;10.90;;;19.80;99.90;;;;;;5030202;28;20539;-49
2021/07/28 01:58:19;;;;;;;12.20;10.90;;;19.80;99.90;;;;;;5029339;28;20187;-51
2021/07/28 02:00:45;;;;;;;12.43;11.10;;;19.70;99.90;;;;;;5020260;28;20221;-51
2021/07/28 02:03:11;;;;;;;11.70;10.50;;;19.70;99.90;;;;;;5015045;28;20486;-48
2021/07/28 02:05:38;;;;;;;11.43;10.53;;;19.70;99.90;;;;;;5017318;28;20728;-49
2021/07/28 02:08:06;;;;;;;12.03;11.03;;;19.60;99.90;;;;;;5015464;28;20575;-49
2021/07/28 02:10:33;;;;;;;12.33;11.20;;;19.60;99.90;;;;;;5017399;28;20935;-49
2021/07/28 02:13:00;;;;;;;12.47;11.37;;;19.50;99.90;;;;;;5019526;28;20488;-50
2021/07/28 02:15:27;;;;;;;13.27;11.87;;;19.60;99.90;;;;;;5023619;28;20434;-49
2021/07/28 02:17:53;;;;;;;11.90;10.90;;;19.50;99.90;;;;;;5013056;28;20472;-49
2021/07/28 02:20:19;;;;;;;12.50;11.50;;;19.50;99.90;;;;;;5020931;28;20449;-51
2021/07/28 02:22:46;;;;;;;12.97;11.77;;;19.50;99.90;;;;;;5016874;28;20838;-49
2021/07/28 02:25:12;;;;;;;12.73;11.43;;;19.40;99.90;;;;;;5017589;28;20187;-48
2021/07/28 02:27:37;;;;;;;13.32;12.13;;;19.40;99.90;;;;;;5012373;28;21037;-48
2021/07/28 02:30:05;;;;;;;13.03;11.90;;;19.40;99.90;;;;;;5018067;28;20187;-51
2021/07/28 02:32:31;;;;;;;12.40;11.30;;;19.50;99.90;;;;;;5017683;28;20522;-50
2021/07/28 02:34:56;;;;;;;12.60;11.50;;;19.50;99.90;;;;;;5017487;28;20447;-49
2021/07/28 02:37:22;;;;;;;13.60;12.50;;;19.40;99.90;;;;;;5010165;28;20189;-47
2021/07/28 02:39:47;;;;;;;13.53;12.33;;;19.40;99.90;;;;;;5011704;28;20607;-52
2021/07/28 02:42:13;;;;;;;12.63;11.53;;;19.40;99.90;;;;;;5028311;28;20187;-47
2021/07/28 02:44:38;;;;;;;12.93;11.90;;;19.30;99.90;;;;;;5019523;28;20187;-49
2021/07/28 02:47:04;;;;;;;14.07;12.70;;;19.30;99.90;;;;;;5012262;28;20207;-49
2021/07/28 02:49:29;;;;;;;13.40;12.10;;;19.40;99.90;;;;;;5012195;28;20175;-51
2021/07/28 02:51:55;;;;;;;12.20;11.20;;;19.30;99.90;;;;;;5014618;28;20626;-45
2021/07/28 02:54:22;;;;;;;13.43;12.10;;;19.30;99.90;;;;;;5022267;28;20182;-48
2021/07/28 02:56:48;;;;;;;13.40;12.30;;;19.30;99.90;;;;;;5008680;28;20237;-53
2021/07/28 02:59:13;;;;;;;13.38;12.20;;;19.30;99.90;;;;;;5022031;28;20819;-46
2021/07/28 03:01:39;;;;;;;12.37;11.27;;;19.30;99.90;;;;;;5017324;28;20193;-51
2021/07/28 03:04:05;;;;;;;12.60;11.50;;;19.40;99.90;;;;;;5028292;28;20181;-47
2021/07/28 03:06:31;;;;;;;12.90;11.63;;;19.50;99.90;;;;;;5031075;28;20217;-51
2021/07/28 03:08:57;;;;;;;12.47;11.47;;;19.40;99.90;;;;;;5028567;28;20658;-50
2021/07/28 03:11:22;;;;;;;13.53;12.33;;;19.50;99.90;;;;;;5029626;28;20440;-48
2021/07/28 03:13:48;;;;;;;12.97;11.70;;;19.50;99.90;;;;;;5017724;28;20184;-50
2021/07/28 03:16:13;;;;;;;12.13;10.90;;;19.50;99.90;;;;;;5040664;28;20190;-47
2021/07/28 03:18:39;;;;;;;11.70;10.70;;;19.60;99.90;;;;;;5043791;28;20339;-49
2021/07/28 03:21:05;;;;;;;11.00;10.00;;;19.80;99.90;;;;;;5028029;28;20255;-46
2021/07/28 03:23:30;;;;;;;9.80;8.80;;;19.80;99.90;;;;;;5030200;28;20194;-50
2021/07/28 03:25:56;;;;;;;9.47;8.67;;;19.70;95.30;;;;;;5018574;28;20211;-50
2021/07/28 03:28:22;;;;;;;9.90;8.90;;;19.80;88.30;;;;;;5030642;28;20177;-48
2021/07/28 03:30:49;;;;;;;10.13;9.33;;;19.90;75.00;;;;;;5028221;28;20180;-48
2021/07/28 03:33:15;;;;;;;9.83;8.97;;;19.90;73.90;;;;;;5030776;28;20209;-48
2021/07/28 03:35:41;;;;;;;10.23;9.37;;;19.90;68.90;;;;;;5018795;28;20519;-50
2021/07/28 03:38:06;;;;;;;10.33;9.43;;;19.90;69.60;;;;;;5028377;28;20644;-46
2021/07/28 03:40:32;;;;;;;9.97;9.07;;;19.90;69.90;;;;;;5024539;28;20265;-50
2021/07/28 03:42:57;;;;;;;10.77;9.73;;;20.00;68.80;;;;;;5028747;28;20272;-48
2021/07/28 03:45:23;;;;;;;10.23;8.93;;;20.00;64.50;;;;;;5028847;28;20200;-48
2021/07/28 03:47:48;;;;;;;10.10;9.20;;;20.00;64.10;;;;;;5029245;28;20195;-51
2021/07/28 03:50:14;;;;;;;10.70;9.70;;;20.00;60.50;;;;;;5026142;28;20186;-50
2021/07/28 03:52:40;;;;;;;10.67;9.77;;;20.00;61.60;;;;;;5028633;28;20189;-52
2021/07/28 03:55:06;;;;;;;9.63;8.83;;;20.00;60.50;;;;;;5027929;28;20232;-53
2021/07/28 03:57:32;;;;;;;11.33;10.43;;;19.90;59.90;;;;;;5029588;28;20440;-49
2021/07/28 03:59:58;;;;;;;10.20;9.30;;;20.00;43.40;;;;;;5021685;28;20441;-46
2021/07/28 04:02:23;;;;;;;13.20;9.77;;;20.00;28.70;;;;;;5024803;28;20195;-51
2021/07/28 04:04:49;;;;;;;10.70;9.70;;;20.30;24.30;;;;;;5026845;28;20845;-50
2021/07/28 04:07:14;;;;;;;10.20;9.30;;;20.30;12.30;;;;;;5028911;28;20688;-49
2021/07/28 04:09:40;;;;;;;10.00;9.00;;;20.40;4.90;;;;;;5029726;28;20179;-49
2021/07/28 04:12:06;;;;;;;9.80;8.90;;;20.30;1.00;;;;;;5024661;28;20219;-50
2021/07/28 04:14:31;;;;;;;9.53;8.73;;;20.40;1.60;;;;;;5028777;28;20182;-49
2021/07/28 04:16:57;;;;;;;10.13;9.33;;;20.40;7.60;;;;;;5026565;28;20481;-51
2021/07/28 04:19:22;;;;;;;10.47;9.57;;;20.40;2.70;;;;;;5014713;28;20202;-49
2021/07/28 04:21:48;;;;;;;10.63;9.60;;;20.40;1.00;;;;;;5010862;28;21124;-51
2021/07/28 04:24:13;;;;;;;10.70;9.80;;;20.50;1.00;;;;;;5011409;28;20664;-50
2021/07/28 04:26:39;;;;;;;9.70;8.90;;;20.50;1.00;;;;;;5005673;28;20343;-52
2021/07/28 04:29:04;;;;;;;10.73;9.83;;;20.60;1.00;;;;;;5004550;28;20270;-50
2021/07/28 04:31:30;;;;;;;11.27;10.17;;;20.60;1.00;;;;;;5007308;28;21377;-51
2021/07/28 04:33:55;;;;;;;10.33;9.40;;;20.70;1.00;;;;;;5007301;28;20233;-51
2021/07/28 04:36:21;;;;;;;10.13;9.33;;;20.80;1.00;;;;;;5007268;28;20182;-49
2021/07/28 04:38:46;;;;;;;10.47;9.47;;;20.80;1.00;;;;;;5007043;28;20183;-47
2021/07/28 04:41:12;;;;;;;9.93;9.10;;;20.80;1.00;;;;;;5007666;28;20179;-47
2021/07/28 04:43:37;;;;;;;10.70;9.77;;;20.90;1.00;;;;;;5028052;28;20218;-49
2021/07/28 04:46:03;;;;;;;11.13;10.20;;;20.90;1.00;;;;;;5029470;28;20202;-46
2021/07/28 04:48:30;;;;;;;10.83;10.03;;;20.80;1.00;;;;;;5020047;28;20192;-49
2021/07/28 04:50:57;;;;;;;9.80;9.00;;;20.70;1.00;;;;;;5030580;28;20470;-49
2021/07/28 04:53:28;;;;;;;10.73;9.60;;;20.70;1.00;;;;;;5030454;28;20273;-46
2021/07/28 04:55:58;;;;;;;10.63;9.67;;;20.70;2.50;;;;;;5029922;28;20444;-48
2021/07/28 04:58:24;;;;;;;10.47;9.43;;;20.70;1.50;;;;;;5030002;28;20425;-50
2021/07/28 05:00:51;;;;;;;10.10;9.20;;;20.70;1.80;;;;;;5024138;28;20449;-50
2021/07/28 05:03:17;;;;;;;10.17;9.30;;;20.70;1.00;;;;;;5030408;28;20425;-47
2021/07/28 05:05:43;;;;;;;10.47;9.50;;;20.80;1.00;;;;;;5029523;28;20468;-47
2021/07/28 05:08:09;;;;;;;10.97;10.03;;;20.90;1.00;;;;;;5014393;28;20434;-51
2021/07/28 05:10:35;;;;;;;10.50;9.70;;;21.00;1.00;;;;;;5024970;28;20190;-51
2021/07/28 05:13:01;;;;;;;11.53;10.53;;;21.10;1.00;;;;;;5025537;28;20441;-48
2021/07/28 05:15:26;;;;;;;10.37;9.47;;;21.20;1.00;;;;;;5031305;28;20443;-49
2021/07/28 05:17:52;;;;;;;10.07;9.17;;;21.30;1.00;;;;;;5032597;28;20226;-47
2021/07/28 05:20:18;;;;;;;12.00;10.80;;;21.30;1.00;;;;;;5030978;28;20685;-50
2021/07/28 05:22:45;;;;;;;11.37;10.30;;;21.40;1.00;;;;;;5032793;28;20183;-53
2021/07/28 05:25:11;;;;;;;10.30;9.43;;;21.50;1.00;;;;;;5032524;28;20425;-48
2021/07/28 05:27:36;;;;;;;10.47;9.43;;;21.60;1.00;;;;;;5030346;28;20238;-50
2021/07/28 05:30:03;;;;;;;10.60;9.60;;;21.70;1.00;;;;;;5032585;28;20955;-49
2021/07/28 05:32:29;;;;;;;9.93;9.13;;;21.70;1.00;;;;;;5032678;28;20190;-46
2021/07/28 05:34:54;;;;;;;9.80;9.10;;;21.80;1.00;;;;;;5032652;28;20433;-53
2021/07/28 05:37:20;;;;;;;9.87;9.07;;;21.90;1.00;;;;;;5032773;28;21007;-48
2021/07/28 05:39:46;;;;;;;9.70;8.70;;;22.00;1.00;;;;;;5032771;28;20645;-49
2021/07/28 05:42:12;;;;;;;10.07;9.27;;;22.10;1.00;;;;;;5032382;28;20421;-48
2021/07/28 05:44:38;;;;;;;9.90;8.77;;;22.10;1.00;;;;;;5014193;28;20629;-52
2021/07/28 05:47:04;;;;;;;10.07;9.27;;;22.10;1.00;;;;;;5021823;28;20233;-49
2021/07/28 05:49:29;;;;;;;10.50;9.60;;;22.10;1.00;;;;;;5032210;28;20520;-49
2021/07/28 05:51:55;;;;;;;10.17;9.37;;;22.20;1.00;;;;;;5031224;28;20186;-47
2021/07/28 05:54:21;;;;;;;9.90;9.10;;;22.40;1.00;;;;;;5032038;28;20257;-50
2021/07/28 05:56:47;;;;;;;9.63;8.83;;;22.40;1.00;;;;;;5026772;28;20694;-48
2021/07/28 05:59:12;;;;;;;9.33;8.63;;;22.50;1.00;;;;;;5032011;28;20429;-50
2021/07/28 06:01:38;;;;;;;9.90;9.10;;;22.40;1.00;;;;;;5030506;28;20721;-51
2021/07/28 06:04:04;;;;;;;11.20;10.13;;;22.50;1.00;;;;;;5031969;28;20186;-51
2021/07/28 06:06:29;;;;;;;10.60;9.60;;;22.60;1.00;;;;;;5031885;28;20213;-51
2021/07/28 06:08:55;;;;;;;10.80;9.80;;;22.70;1.00;;;;;;5031712;28;20194;-49
2021/07/28 06:11:21;;;;;;;11.27;10.37;;;22.70;1.00;;;;;;5023784;28;20228;-52
2021/07/28 06:13:47;;;;;;;11.00;10.03;;;22.90;1.00;;;;;;5030796;28;20176;-53
2021/07/28 06:16:12;;;;;;;10.20;9.50;;;23.00;1.00;;;;;;5030704;28;20445;-50
2021/07/28 06:18:38;;;;;;;10.70;9.80;;;23.10;1.00;;;;;;5030913;28;20317;-49
2021/07/28 06:21:03;;;;;;;9.30;8.57;;;23.10;1.00;;;;;;5031203;28;20201;-49
2021/07/28 06:23:29;;;;;;;10.10;9.20;;;23.10;1.00;;;;;;5031067;28;20591;-51
2021/07/28 06:25:55;;;;;;;10.17;9.37;;;23.20;1.00;;;;;;5030896;28;20309;-55
2021/07/28 06:28:20;;;;;;;10.53;9.60;;;23.30;1.00;;;;;;5030947;28;20178;-52
2021/07/28 06:30:49;;;;;;;9.93;9.13;;;23.40;1.00;;;;;;5030772;28;20185;-51
2021/07/28 06:33:15;;;;;;;10.30;9.37;;;23.50;1.00;;;;;;5030395;28;20258;-50
2021/07/28 06:35:40;;;;;;;11.00;10.07;;;23.50;99.90;;;;;;5030486;28;20924;-54
2021/07/28 06:38:06;;;;;;;10.38;9.57;;;23.60;99.90;;;;;;5027350;28;20224;-55
2021/07/28 06:40:31;;;;;;;9.67;8.97;;;23.70;99.90;;;;;;5024748;28;20171;-50
2021/07/28 06:42:57;;;;;;;10.10;9.20;;;23.70;99.90;;;;;;5025348;28;20189;-52
2021/07/28 06:45:22;;;;;;;10.97;10.07;;;23.70;99.90;;;;;;5030379;28;20532;-51
2021/07/28 06:47:48;;;;;;;10.03;9.30;;;23.70;99.90;;;;;;5030248;28;20179;-53
2021/07/28 06:50:13;;;;;;;11.03;10.13;;;23.70;99.90;;;;;;5030688;28;20193;-50
2021/07/28 06:52:39;;;;;;;11.13;10.13;;;23.70;99.90;;;;;;5030493;28;20186;-51
2021/07/28 06:55:05;;;;;;;11.63;10.40;;;23.50;99.90;;;;;;5030878;28;20210;-50
2021/07/28 06:57:31;;;;;;;10.27;9.37;;;23.50;1.00;;;;;;5030703;28;20986;-52
2021/07/28 06:59:57;;;;;;;10.77;9.97;;;23.50;1.00;;;;;;5030574;28;20445;-52
2021/07/28 07:02:22;;;;;;;10.87;10.07;;;23.60;1.00;;;;;;5030204;28;20641;-53
2021/07/28 07:04:48;;;;;;;10.80;9.80;;;23.50;1.00;;;;;;5030411;28;20443;-54
2021/07/28 07:07:13;;;;;;;11.40;10.50;;;23.50;1.00;;;;;;5030718;28;20203;-52
2021/07/28 07:09:39;;;;;;;10.83;9.90;;;23.60;1.00;;;;;;5029935;28;20655;-51
2021/07/28 07:12:05;;;;;;;10.63;9.67;;;23.70;1.00;;;;;;5029995;28;20183;-50
2021/07/28 07:14:30;;;;;;;10.30;9.40;;;23.80;1.00;;;;;;5028567;28;20194;-47
2021/07/28 07:16:57;;;;;;;10.90;9.97;;;23.90;1.00;;;;;;5030060;28;20705;-51
2021/07/28 07:19:22;;;;;;;9.70;9.00;;;24.00;1.00;;;;;;5021943;28;20637;-48
2021/07/28 07:21:48;;;;;;;10.65;9.85;;;24.00;1.00;;;;;;5030115;28;20408;-49
2021/07/28 07:24:13;;;;;;;10.70;9.90;;;24.20;1.00;;;;;;5027860;28;20218;-50
2021/07/28 07:26:39;;;;;;;11.20;10.23;;;24.30;99.90;;;;;;5024295;28;20199;-52
2021/07/28 07:29:05;;;;;;;11.10;10.13;;;24.40;99.90;;;;;;5028813;28;20189;-54
2021/07/28 07:31:30;;;;;;;10.63;9.73;;;24.40;99.90;;;;;;5029116;28;20183;-48
2021/07/28 07:33:56;;;;;;;10.43;9.57;;;24.40;1.00;;;;;;5028683;28;20266;-52
2021/07/28 07:36:23;;;;;;;10.60;9.80;;;24.60;1.00;;;;;;5029629;28;20182;-52
2021/07/28 07:38:49;;;;;;;10.37;9.30;;;24.60;1.00;;;;;;5029288;28;20173;-55
2021/07/28 07:41:14;;;;;;;11.53;10.43;;;24.50;99.90;;;;;;5028957;28;20959;-49
2021/07/28 07:43:40;;;;;;;10.37;9.40;;;24.50;99.90;;;;;;5028437;28;20182;-47
2021/07/28 07:46:06;;;;;;;10.40;9.60;;;24.30;1.00;;;;;;5028640;28;20248;-53
2021/07/28 07:48:32;;;;;;;10.40;9.57;;;24.10;99.90;;;;;;5028534;28;20198;-50
2021/07/28 07:50:57;;;;;;;10.48;9.68;;;23.80;1.00;;;;;;5028442;28;20890;-50
2021/07/28 07:53:23;;;;;;;9.90;9.20;;;23.70;1.00;;;;;;5028031;28;20187;-52
2021/07/28 07:55:49;;;;;;;11.90;9.40;;;23.80;1.00;;;;;;5028264;28;20236;-52
2021/07/28 07:58:14;;;;;;;10.87;9.87;;;23.70;1.00;;;;;;5010844;28;20179;-55
2021/07/28 08:00:40;;;;;;;9.10;8.40;;;23.70;1.00;;;;;;5028280;28;20190;-51
2021/07/28 08:03:06;;;;;;;9.97;9.27;;;23.80;1.00;;;;;;5023706;28;20186;-54
2021/07/28 08:05:32;;;;;;;9.50;8.80;;;23.90;1.00;;;;;;5016537;28;20605;-56
2021/07/28 08:07:58;;;;;;;9.73;9.03;;;23.90;1.00;;;;;;5012199;28;20182;-52
2021/07/28 08:10:24;;;;;;;9.80;9.00;;;24.00;1.00;;;;;;5014161;28;20897;-49
2021/07/28 08:12:49;;;;;;;9.93;9.23;;;24.10;99.90;;;;;;5019134;28;20425;-48
2021/07/28 08:15:15;;;;;;;8.70;8.00;;;24.30;1.00;;;;;;5032284;28;20178;-47
2021/07/28 08:17:40;;;;;;;8.90;8.20;;;24.50;1.00;;;;;;5027469;28;20291;-54
2021/07/28 08:20:06;;;;;;;10.27;9.43;;;24.70;1.00;;;;;;5028091;28;20927;-50
2021/07/28 08:22:32;;;;;;;9.70;9.00;;;24.50;99.90;;;;;;5028213;28;20324;-52
2021/07/28 08:24:58;;;;;;;10.03;9.13;;;24.30;99.90;;;;;;5027039;28;20523;-50
2021/07/28 08:27:25;;;;;;;9.80;9.10;;;24.20;1.00;;;;;;5029028;28;20213;-53
2021/07/28 08:29:54;;;;;;;9.63;8.93;;;24.20;1.00;;;;;;5027346;28;20644;-51
2021/07/28 08:32:20;;;;;;;9.10;8.40;;;24.30;99.90;;;;;;5019849;28;20787;-51
2021/07/28 08:34:46;;;;;;;9.23;8.60;;;24.50;99.90;;;;;;5028040;28;20433;-49
2021/07/28 08:37:11;;;;;;;10.40;9.60;;;24.70;99.90;;;;;;5028821;28;20420;-52
2021/07/28 08:39:37;;;;;;;10.00;9.20;;;24.90;99.90;;;;;;5027855;28;20195;-49
2021/07/28 08:42:05;;;;;;;9.00;8.40;;;25.10;99.90;;;;;;5022767;28;20568;-54
2021/07/28 08:44:36;;;;;;;9.30;8.60;;;25.20;99.90;;;;;;5027850;28;20186;-53
2021/07/28 08:47:03;;;;;;;9.43;8.83;;;25.40;99.90;;;;;;5027769;28;20210;-53
2021/07/28 08:49:29;;;;;;;8.93;8.23;;;25.50;1.00;;;;;;5023996;28;20425;-50
2021/07/28 08:51:54;;;;;;;9.93;9.03;;;25.50;1.00;;;;;;5009150;28;20887;-52
2021/07/28 08:54:21;;;;;;;9.47;8.63;;;25.80;1.00;;;;;;5020382;28;20175;-52
2021/07/28 08:56:47;;;;;;;9.10;8.50;;;26.10;99.90;;;;;;5027173;28;20530;-53
2021/07/28 08:59:32;;;;;;;10.13;9.40;;;26.40;1.00;;;;;;5028608;28;20410;-49
2021/07/28 09:02:00;;;;;;;8.50;7.80;;;26.80;1.00;;;;;;5017523;28;20438;-52
2021/07/28 09:04:27;;;;;;;8.53;8.03;;;27.00;99.90;;;;;;5020243;28;20433;-51
2021/07/28 09:06:53;;;;;;;9.50;8.80;;;27.30;99.90;;;;;;5027397;28;20855;-54
2021/07/28 09:09:20;;;;;;;9.60;8.90;;;27.30;1.00;;;;;;5028690;28;20420;-54
2021/07/28 09:11:55;;;;;;;9.63;8.93;;;27.20;1.00;;;;;;5027438;28;20421;-54
2021/07/28 09:14:23;;;;;;;8.70;8.00;;;27.40;1.00;;;;;;5020522;28;20449;-53
2021/07/28 09:16:50;;;;;;;9.07;8.48;;;27.40;99.90;;;;;;5026015;28;20549;-49
2021/07/28 09:19:40;;;;;;;8.18;7.68;;;27.60;72.00;;;;;;5027860;28;20185;-54
2021/07/28 09:22:07;;;;;;;8.53;7.93;;;28.10;1.00;;;;;;5016866;28;20183;-52
2021/07/28 09:24:32;;;;;;;8.47;7.97;;;28.50;1.00;;;;;;5026977;28;20487;-52
2021/07/28 09:26:58;;;;;;;8.60;8.00;;;28.90;1.00;;;;;;5027105;28;20971;-54
2021/07/28 09:29:28;;;;;;;8.03;7.40;;;29.10;99.90;;;;;;5009674;28;20190;-53
2021/07/28 09:31:53;;;;;;;8.13;7.60;;;28.90;99.90;;;;;;5028096;28;20850;-50
2021/07/28 09:34:20;;;;;;;8.63;8.10;;;28.90;99.90;;;;;;5027165;28;20438;-54
2021/07/28 09:36:51;;;;;;;8.87;8.27;;;28.80;99.90;;;;;;5019108;28;20830;-53
2021/07/28 09:39:27;;;;;;;9.00;8.40;;;28.90;99.90;;;;;;5028045;28;20431;-54
2021/07/28 09:41:53;;;;;;;8.50;7.90;;;28.20;99.90;;;;;;5016576;28;20891;-54
2021/07/28 09:44:29;;;;;;;8.07;7.57;;;27.60;99.90;;;;;;5024048;28;20440;-53
2021/07/28 09:47:14;;;;;;;8.37;7.77;;;27.70;99.90;;;;;;5029006;28;20509;-54
2021/07/28 09:49:42;;;;;;;8.53;7.73;;;27.80;99.90;;;;;;5031357;28;20420;-52
2021/07/28 09:52:22;;;;;;;8.10;7.50;;;28.10;99.90;;;;;;5025045;28;20540;-52
2021/07/28 09:54:50;;;;;;;8.63;8.10;;;28.60;99.90;;;;;;5030926;28;20432;-52
2021/07/28 09:57:21;;;;;;;8.47;7.90;;;29.00;99.90;;;;;;5019432;28;20555;-53
2021/07/28 09:59:51;;;;;;;8.70;8.00;;;29.40;99.90;;;;;;5029505;28;20441;-51
2021/07/28 10:02:17;;;;;;;9.03;8.53;;;29.70;99.90;;;;;;5031718;28;20429;-53
2021/07/28 10:04:51;;;;;;;8.90;8.30;;;30.60;99.90;;;;;;5031304;28;20431;-53
2021/07/28 10:07:18;;;;;;;8.43;7.83;;;31.20;99.90;;;;;;5027506;28;20473;-51
2021/07/28 10:09:55;;;;;;;8.17;7.60;;;31.40;99.90;;;;;;5031685;28;20417;-54
2021/07/28 10:12:22;;;;;;;7.63;7.13;;;31.00;99.90;;;;;;5031614;28;20420;-52
2021/07/28 10:14:50;;;;;;;7.40;7.00;;;30.90;99.90;;;;;;5027804;28;20841;-50
2021/07/28 10:17:16;;;;;;;7.80;7.30;;;30.20;99.90;;;;;;5030709;28;20473;-51
2021/07/28 10:19:42;;;;;;;8.15;7.55;;;29.80;99.90;;;;;;5031205;28;20475;-54
2021/07/28 10:22:11;;;;;;;7.80;7.40;;;29.70;99.90;;;;;;5030903;28;20538;-53
2021/07/28 10:24:37;;;;;;;7.57;7.07;;;30.50;99.90;;;;;;5019840;28;20948;-49
2021/07/28 10:27:03;;;;;;;7.57;7.07;;;31.30;99.90;;;;;;5017696;28;20507;-51
2021/07/28 10:29:30;;;;;;;7.07;6.67;;;32.30;99.90;;;;;;5030768;28;20634;-53
2021/07/28 10:31:56;;;;;;;7.00;6.60;;;32.80;99.90;;;;;;5023080;28;20429;-50
2021/07/28 10:34:28;;;;;;;6.60;6.30;;;33.10;99.90;;;;;;5030955;28;20418;-51
2021/07/28 10:37:05;;;;;;;6.80;6.40;;;33.40;99.90;;;;;;5029964;28;20454;-53
2021/07/28 10:39:47;;;;;;;7.30;6.90;;;32.50;99.90;;;;;;5030675;28;20496;-50
2021/07/28 10:42:39;;;;;;;6.80;6.30;;;31.80;99.90;;;;;;5027939;28;20452;-56
2021/07/28 10:45:04;;;;;;;6.80;6.40;;;32.50;99.90;;;;;;5028024;28;21051;-53
2021/07/28 10:47:34;;;;;;;7.63;7.23;;;32.30;99.90;;;;;;5017584;28;20457;-54
2021/07/28 10:50:00;;;;;;;7.20;6.80;;;31.10;99.90;;;;;;5018983;28;20259;-51
2021/07/28 10:52:37;;;;;;;7.77;7.27;;;30.20;99.90;;;;;;5028339;28;20416;-54
2021/07/28 10:55:02;;;;;;;7.93;7.53;;;29.60;99.90;;;;;;5027581;28;20455;-52
2021/07/28 10:57:34;;;;;;;7.10;6.67;;;30.20;99.90;;;;;;5028362;28;20440;-50
2021/07/28 11:00:05;;;;;;;8.10;7.70;;;30.90;99.90;;;;;;5028398;28;20197;-55
2021/07/28 11:02:52;;;;;;;7.50;7.03;;;31.20;99.90;;;;;;5029461;28;20421;-55
2021/07/28 11:05:29;;;;;;;7.60;7.20;;;30.50;99.90;;;;;;5029132;28;20460;-52
2021/07/28 11:08:07;;;;;;;7.57;7.10;;;30.80;99.90;;;;;;5028118;28;20429;-53
2021/07/28 11:10:49;;;;;;;7.43;7.03;;;30.50;99.90;;;;;;5029236;28;20919;-51
2021/07/28 11:13:19;;;;;;;7.60;7.17;;;29.70;99.90;;;;;;5027223;28;20820;-51
2021/07/28 11:16:11;;;;;;;8.10;7.50;;;29.10;99.90;;;;;;5028438;28;20968;-54
2021/07/28 11:18:40;;;;;;;7.47;7.07;;;29.00;99.90;;;;;;5024386;28;20464;-48
2021/07/28 11:21:07;;;;;;;7.22;6.75;;;29.10;99.90;;;;;;5029015;28;20505;-54
2021/07/28 11:23:33;;;;;;;7.45;7.05;;;29.90;99.90;;;;;;5028940;28;20209;-51
2021/07/28 11:26:00;;;;;;;8.07;7.20;;;30.80;99.90;;;;;;5028443;28;20233;-52
2021/07/28 11:28:26;;;;;;;6.82;6.50;;;31.40;99.90;;;;;;5028946;28;20186;-49
2021/07/28 11:30:56;;;;;;;7.70;7.20;;;32.10;99.90;;;;;;5028588;28;20465;-53
2021/07/28 11:33:22;;;;;;;8.00;7.50;;;32.20;99.90;;;;;;5029361;28;20759;-54
2021/07/28 11:35:51;;;;;;;8.30;7.70;;;32.20;99.90;;;;;;5023329;28;20425;-52
2021/07/28 11:38:18;;;;;;;8.63;8.13;;;32.00;99.90;;;;;;5024277;28;20420;-52
2021/07/28 11:40:46;;;;;;;9.10;8.60;;;32.30;99.90;;;;;;5025204;28;20244;-51
2021/07/28 11:43:31;;;;;;;7.73;7.33;;;32.20;99.90;;;;;;5023106;28;20406;-49
2021/07/28 11:46:03;;;;;;;8.15;7.65;;;32.20;99.90;;;;;;5023200;28;20468;-54
2021/07/28 11:48:29;;;;;;;8.10;7.60;;;32.80;99.90;;;;;;5023942;28;20582;-52
2021/07/28 11:50:55;;;;;;;8.70;8.20;;;33.20;99.90;;;;;;5023497;28;20187;-51
2021/07/28 11:53:25;;;;;;;8.50;8.00;;;33.10;99.90;;;;;;5022032;28;20536;-55
2021/07/28 11:55:52;;;;;;;8.47;7.90;;;33.50;99.90;;;;;;5024161;28;20194;-52
2021/07/28 11:58:18;;;;;;;8.70;8.27;;;33.60;99.90;;;;;;5024220;28;20417;-49
2021/07/28 12:00:46;;;;;;;8.23;7.83;;;34.00;99.90;;;;;;5024008;28;20801;-51
2021/07/28 12:03:22;;;;;;;8.10;7.70;;;34.40;99.90;;;;;;5026255;28;20191;-50
2021/07/28 12:06:02;;;;;;;8.00;7.60;;;33.90;99.90;;;;;;5026017;28;20507;-55
2021/07/28 12:08:31;;;;;;;7.67;7.20;;;33.60;99.90;;;;;;5026204;28;20505;-54
2021/07/28 12:11:08;;;;;;;8.20;7.80;;;33.60;99.90;;;;;;5026081;28;20414;-54
2021/07/28 12:13:43;;;;;;;8.40;7.90;;;33.40;99.90;;;;;;5028205;28;20413;-54
2021/07/28 12:16:10;;;;;;;8.60;8.10;;;33.20;99.90;;;;;;5024444;28;20438;-55
2021/07/28 12:18:47;;;;;;;8.60;8.10;;;33.40;99.90;;;;;;5026833;28;20847;-57
2021/07/28 12:21:14;;;;;;;8.37;7.97;;;33.70;99.90;;;;;;5026001;28;20412;-55
2021/07/28 12:23:53;;;;;;;8.63;8.13;;;34.10;99.90;;;;;;5020714;28;20425;-52
2021/07/28 12:26:45;;;;;;;9.80;8.90;;;34.20;99.90;;;;;;5020871;28;20458;-54
2021/07/28 12:29:10;;;;;;;7.68;7.28;;;33.90;99.90;;;;;;5019137;28;20447;-52
2021/07/28 12:31:36;;;;;;;8.37;7.87;;;33.40;99.90;;;;;;5012927;28;20176;-54
2021/07/28 12:34:21;;;;;;;7.80;7.30;;;32.70;99.90;;;;;;5028297;28;20622;-52
2021/07/28 12:36:47;;;;;;;8.87;8.27;;;31.50;99.90;;;;;;5018579;28;20195;-52
2021/07/28 12:39:12;;;;;;;8.00;7.60;;;30.70;99.90;;;;;;5020121;28;20460;-49
2021/07/28 12:41:38;;;;;;;8.57;8.17;;;30.00;99.90;;;;;;5020219;28;20436;-54
2021/07/28 12:44:04;;;;;;;8.67;8.17;;;29.60;99.90;;;;;;5024243;28;20189;-53
2021/07/28 12:46:29;;;;;;;9.37;8.87;;;29.30;99.90;;;;;;5027891;28;20214;-54